sensor_id;sensor_type;location;lat;lon;timestamp;pressure;altitude;pressure_sealevel;temperature;humidity
46598;BME280;32318;48.858;8.252;2023-03-15T00:02:14;100085.81;;;5.28;77.50
46598;BME280;32318;48.858;8.252;2023-03-15T00:10:15;100101.31;;;5.32;77.71
46598;BME280;32318;48.858;8.252;2023-03-15T00:18:16;100133.75;;;5.34;77.98
46598;BME280;32318;48.858;8.252;2023-03-15T00:26:17;100142.09;;;5.30;77.46
46598;BME280;32318;48.858;8.252;2023-03-15T00:34:17;100154.47;;;5.20;76.86
46598;BME280;32318;48.858;8.252;2023-03-15T00:42:22;100172.88;;;5.00;76.58
46598;BME280;32318;48.858;8.252;2023-03-15T00:50:26;100176.00;;;4.72;75.72
46598;BME280;32318;48.858;8.252;2023-03-15T00:58:27;100180.03;;;4.67;76.50
46598;BME280;32318;48.858;8.252;2023-03-15T01:06:27;100181.09;;;4.64;76.27
46598;BME280;32318;48.858;8.252;2023-03-15T01:14:28;100179.81;;;4.59;76.44
46598;BME280;32318;48.858;8.252;2023-03-15T01:22:28;100186.31;;;4.54;76.35
46598;BME280;32318;48.858;8.252;2023-03-15T01:30:29;100172.81;;;4.36;76.74
46598;BME280;32318;48.858;8.252;2023-03-15T01:38:30;100183.78;;;4.20;76.77
46598;BME280;32318;48.858;8.252;2023-03-15T01:46:31;100207.94;;;4.04;76.90
46598;BME280;32318;48.858;8.252;2023-03-15T01:54:40;100209.03;;;4.02;76.94
46598;BME280;32318;48.858;8.252;2023-03-15T02:02:46;100233.09;;;3.87;77.65
46598;BME280;32318;48.858;8.252;2023-03-15T02:10:50;100236.31;;;3.80;76.95
46598;BME280;32318;48.858;8.252;2023-03-15T02:18:51;100246.75;;;3.70;77.21
46598;BME280;32318;48.858;8.252;2023-03-15T02:26:54;100260.69;;;3.60;76.75
46598;BME280;32318;48.858;8.252;2023-03-15T02:43:53;100263.44;;;3.48;77.44
46598;BME280;32318;48.858;8.252;2023-03-15T02:51:54;100287.41;;;3.44;77.77
46598;BME280;32318;48.858;8.252;2023-03-15T02:59:55;100300.94;;;3.40;77.10
46598;BME280;32318;48.858;8.252;2023-03-15T03:07:56;100307.38;;;3.24;78.28
46598;BME280;32318;48.858;8.252;2023-03-15T03:15:57;100302.56;;;3.18;77.36
46598;BME280;32318;48.858;8.252;2023-03-15T03:23:57;100315.78;;;3.18;77.76
46598;BME280;32318;48.858;8.252;2023-03-15T03:31:58;100328.69;;;3.10;78.14
46598;BME280;32318;48.858;8.252;2023-03-15T03:39:59;100333.34;;;3.06;78.44
46598;BME280;32318;48.858;8.252;2023-03-15T03:48:00;100333.34;;;3.06;78.31
46598;BME280;32318;48.858;8.252;2023-03-15T03:56:03;100337.91;;;3.04;78.00
46598;BME280;32318;48.858;8.252;2023-03-15T04:04:04;100351.19;;;3.03;78.17
46598;BME280;32318;48.858;8.252;2023-03-15T04:12:04;100365.56;;;2.98;77.54
46598;BME280;32318;48.858;8.252;2023-03-15T04:20:05;100366.78;;;3.06;78.46
46598;BME280;32318;48.858;8.252;2023-03-15T04:28:08;100371.25;;;3.17;77.83
46598;BME280;32318;48.858;8.252;2023-03-15T04:36:09;100381.31;;;3.11;77.33
46598;BME280;32318;48.858;8.252;2023-03-15T04:44:18;100371.13;;;3.07;77.44
46598;BME280;32318;48.858;8.252;2023-03-15T04:52:18;100366.03;;;3.04;77.48
46598;BME280;32318;48.858;8.252;2023-03-15T05:00:18;100369.16;;;2.97;76.71
46598;BME280;32318;48.858;8.252;2023-03-15T05:08:19;100377.50;;;2.91;76.75
46598;BME280;32318;48.858;8.252;2023-03-15T05:16:19;100365.47;;;2.87;77.36
46598;BME280;32318;48.858;8.252;2023-03-15T05:24:21;100377.44;;;2.80;76.90
46598;BME280;32318;48.858;8.252;2023-03-15T05:32:21;100388.50;;;2.85;77.05
46598;BME280;32318;48.858;8.252;2023-03-15T05:40:25;100381.22;;;2.89;76.71
46598;BME280;32318;48.858;8.252;2023-03-15T05:48:28;100387.31;;;2.89;76.68
46598;BME280;32318;48.858;8.252;2023-03-15T05:56:29;100385.66;;;2.75;76.03
46598;BME280;32318;48.858;8.252;2023-03-15T06:04:29;100402.88;;;2.68;76.18
46598;BME280;32318;48.858;8.252;2023-03-15T06:12:29;100415.75;;;2.73;76.87
46598;BME280;32318;48.858;8.252;2023-03-15T06:20:30;100412.66;;;2.79;76.34
46598;BME280;32318;48.858;8.252;2023-03-15T06:28:31;100416.97;;;2.80;76.28
46598;BME280;32318;48.858;8.252;2023-03-15T06:36:31;100435.19;;;2.96;76.75
46598;BME280;32318;48.858;8.252;2023-03-15T06:44:31;100437.22;;;3.17;76.51
46598;BME280;32318;48.858;8.252;2023-03-15T06:52:32;100446.34;;;3.37;75.37
46598;BME280;32318;48.858;8.252;2023-03-15T07:00:32;100457.75;;;3.61;74.58
46598;BME280;32318;48.858;8.252;2023-03-15T07:08:33;100469.09;;;3.86;71.99
46598;BME280;32318;48.858;8.252;2023-03-15T07:16:33;100460.91;;;3.78;70.18
46598;BME280;32318;48.858;8.252;2023-03-15T07:24:33;100461.66;;;3.91;71.16
46598;BME280;32318;48.858;8.252;2023-03-15T07:32:34;100464.84;;;4.08;69.05
46598;BME280;32318;48.858;8.252;2023-03-15T07:40:34;100476.28;;;4.31;69.65
46598;BME280;32318;48.858;8.252;2023-03-15T07:48:34;100484.22;;;4.31;68.01
46598;BME280;32318;48.858;8.252;2023-03-15T07:56:35;100470.22;;;4.42;68.16
46598;BME280;32318;48.858;8.252;2023-03-15T08:04:35;100465.63;;;4.55;67.56
46598;BME280;32318;48.858;8.252;2023-03-15T08:12:35;100480.19;;;4.61;66.95
46598;BME280;32318;48.858;8.252;2023-03-15T08:20:37;100479.09;;;4.86;66.21
46598;BME280;32318;48.858;8.252;2023-03-15T08:28:37;100478.72;;;4.91;65.66
46598;BME280;32318;48.858;8.252;2023-03-15T08:36:37;100481.50;;;5.01;65.59
46598;BME280;32318;48.858;8.252;2023-03-15T08:44:38;100485.88;;;5.34;65.44
46598;BME280;32318;48.858;8.252;2023-03-15T08:52:38;100481.72;;;5.53;64.09
46598;BME280;32318;48.858;8.252;2023-03-15T09:00:39;100488.94;;;5.62;62.09
46598;BME280;32318;48.858;8.252;2023-03-15T09:08:39;100491.88;;;5.80;61.10
46598;BME280;32318;48.858;8.252;2023-03-15T09:16:40;100493.72;;;6.01;62.46
46598;BME280;32318;48.858;8.252;2023-03-15T09:24:41;100497.53;;;6.08;62.21
46598;BME280;32318;48.858;8.252;2023-03-15T09:32:44;100492.19;;;6.41;58.77
46598;BME280;32318;48.858;8.252;2023-03-15T09:40:47;100497.72;;;6.38;58.82
46598;BME280;32318;48.858;8.252;2023-03-15T09:57:01;100521.59;;;6.59;60.31
46598;BME280;32318;48.858;8.252;2023-03-15T10:05:15;100528.44;;;6.83;57.46
46598;BME280;32318;48.858;8.252;2023-03-15T10:14:05;100522.53;;;7.20;59.05
46598;BME280;32318;48.858;8.252;2023-03-15T10:30:23;100517.19;;;7.00;57.38
46598;BME280;32318;48.858;8.252;2023-03-15T10:38:24;100533.13;;;7.00;57.01
46598;BME280;32318;48.858;8.252;2023-03-15T10:46:25;100527.16;;;7.18;57.11
46598;BME280;32318;48.858;8.252;2023-03-15T10:54:26;100536.75;;;7.40;56.06
46598;BME280;32318;48.858;8.252;2023-03-15T11:02:26;100519.38;;;7.36;49.81
46598;BME280;32318;48.858;8.252;2023-03-15T11:10:28;100527.09;;;7.49;54.30
46598;BME280;32318;48.858;8.252;2023-03-15T11:18:43;100527.34;;;7.36;54.07
46598;BME280;32318;48.858;8.252;2023-03-15T11:26:45;100521.97;;;7.16;54.09
46598;BME280;32318;48.858;8.252;2023-03-15T11:43:32;100529.47;;;6.70;58.97
46598;BME280;32318;48.858;8.252;2023-03-15T11:51:36;100534.06;;;6.68;60.77
46598;BME280;32318;48.858;8.252;2023-03-15T11:59:37;100539.00;;;6.52;62.93
46598;BME280;32318;48.858;8.252;2023-03-15T12:07:56;100549.78;;;6.18;65.25
46598;BME280;32318;48.858;8.252;2023-03-15T12:15:57;100547.63;;;6.23;65.40
46598;BME280;32318;48.858;8.252;2023-03-15T12:24:05;100560.47;;;5.95;66.95
46598;BME280;32318;48.858;8.252;2023-03-15T12:32:12;100570.44;;;5.70;68.26
46598;BME280;32318;48.858;8.252;2023-03-15T12:48:22;100549.28;;;5.91;70.57
46598;BME280;32318;48.858;8.252;2023-03-15T12:56:46;100561.31;;;6.28;70.91
46598;BME280;32318;48.858;8.252;2023-03-15T13:04:59;100533.97;;;6.49;70.13
46598;BME280;32318;48.858;8.252;2023-03-15T13:13:36;100537.09;;;6.85;71.05
46598;BME280;32318;48.858;8.252;2023-03-15T13:21:35;100539.09;;;7.02;68.96
46598;BME280;32318;48.858;8.252;2023-03-15T13:29:37;100530.47;;;7.10;68.07
46598;BME280;32318;48.858;8.252;2023-03-15T13:37:37;100519.78;;;6.90;66.95
46598;BME280;32318;48.858;8.252;2023-03-15T13:45:43;100546.69;;;6.76;67.91
46598;BME280;32318;48.858;8.252;2023-03-15T13:53:46;100546.91;;;6.42;71.46
46598;BME280;32318;48.858;8.252;2023-03-15T14:01:48;100537.25;;;6.62;70.02
46598;BME280;32318;48.858;8.252;2023-03-15T14:10:29;100548.72;;;6.63;70.47
46598;BME280;32318;48.858;8.252;2023-03-15T14:18:38;100534.47;;;6.64;69.67
46598;BME280;32318;48.858;8.252;2023-03-15T14:26:39;100540.56;;;6.54;69.26
46598;BME280;32318;48.858;8.252;2023-03-15T14:34:45;100550.84;;;6.48;69.91
46598;BME280;32318;48.858;8.252;2023-03-15T14:42:47;100553.94;;;6.32;70.23
46598;BME280;32318;48.858;8.252;2023-03-15T14:50:47;100556.44;;;6.12;72.11
46598;BME280;32318;48.858;8.252;2023-03-15T14:58:48;100559.63;;;6.06;73.60
46598;BME280;32318;48.858;8.252;2023-03-15T15:06:49;100558.88;;;6.04;73.06
46598;BME280;32318;48.858;8.252;2023-03-15T15:14:50;100571.81;;;5.97;72.85
46598;BME280;32318;48.858;8.252;2023-03-15T15:22:50;100564.09;;;6.05;71.60
46598;BME280;32318;48.858;8.252;2023-03-15T15:30:50;100567.38;;;6.19;71.82
46598;BME280;32318;48.858;8.252;2023-03-15T15:38:51;100565.13;;;6.35;72.11
46598;BME280;32318;48.858;8.252;2023-03-15T15:46:51;100579.06;;;6.49;71.49
46598;BME280;32318;48.858;8.252;2023-03-15T15:54:52;100595.94;;;6.69;71.72
46598;BME280;32318;48.858;8.252;2023-03-15T16:02:53;100599.53;;;6.58;71.33
46598;BME280;32318;48.858;8.252;2023-03-15T16:10:54;100614.00;;;6.54;71.63
46598;BME280;32318;48.858;8.252;2023-03-15T16:18:54;100612.50;;;6.61;72.20
46598;BME280;32318;48.858;8.252;2023-03-15T16:26:59;100608.63;;;6.65;71.63
46598;BME280;32318;48.858;8.252;2023-03-15T16:35:00;100610.81;;;6.81;71.86
46598;BME280;32318;48.858;8.252;2023-03-15T16:43:01;100609.19;;;6.90;72.57
46598;BME280;32318;48.858;8.252;2023-03-15T16:51:02;100614.84;;;6.97;71.96
46598;BME280;32318;48.858;8.252;2023-03-15T16:59:04;100625.06;;;7.01;71.79
46598;BME280;32318;48.858;8.252;2023-03-15T17:07:04;100635.28;;;7.06;72.02
46598;BME280;32318;48.858;8.252;2023-03-15T17:15:05;100643.38;;;7.04;71.97
46598;BME280;32318;48.858;8.252;2023-03-15T17:23:06;100631.63;;;7.07;72.72
46598;BME280;32318;48.858;8.252;2023-03-15T17:31:09;100634.81;;;7.01;72.55
46598;BME280;32318;48.858;8.252;2023-03-15T17:39:13;100641.19;;;6.88;73.05
46598;BME280;32318;48.858;8.252;2023-03-15T17:47:14;100641.84;;;6.81;73.33
46598;BME280;32318;48.858;8.252;2023-03-15T17:55:17;100657.81;;;6.69;73.29
46598;BME280;32318;48.858;8.252;2023-03-15T18:03:17;100664.75;;;6.61;73.80
46598;BME280;32318;48.858;8.252;2023-03-15T18:11:33;100662.78;;;6.41;74.55
46598;BME280;32318;48.858;8.252;2023-03-15T18:19:41;100661.84;;;6.31;75.07
46598;BME280;32318;48.858;8.252;2023-03-15T18:27:41;100677.28;;;6.26;75.29
46598;BME280;32318;48.858;8.252;2023-03-15T18:35:42;100680.88;;;6.25;75.15
46598;BME280;32318;48.858;8.252;2023-03-15T18:43:42;100676.34;;;6.16;75.92
46598;BME280;32318;48.858;8.252;2023-03-15T18:51:48;100697.44;;;6.06;76.51
46598;BME280;32318;48.858;8.252;2023-03-15T18:59:48;100697.81;;;6.01;75.60
46598;BME280;32318;48.858;8.252;2023-03-15T19:07:49;100697.56;;;5.93;76.03
46598;BME280;32318;48.858;8.252;2023-03-15T19:15:49;100692.88;;;5.85;76.08
46598;BME280;32318;48.858;8.252;2023-03-15T19:23:49;100696.13;;;5.77;76.14
46598;BME280;32318;48.858;8.252;2023-03-15T19:31:50;100710.84;;;5.70;75.85
46598;BME280;32318;48.858;8.252;2023-03-15T19:39:50;100704.69;;;5.58;76.45
46598;BME280;32318;48.858;8.252;2023-03-15T19:47:51;100701.69;;;5.52;76.79
46598;BME280;32318;48.858;8.252;2023-03-15T19:55:51;100713.38;;;5.49;76.82
46598;BME280;32318;48.858;8.252;2023-03-15T20:03:51;100708.44;;;5.44;76.99
46598;BME280;32318;48.858;8.252;2023-03-15T20:11:51;100721.66;;;5.44;76.74
46598;BME280;32318;48.858;8.252;2023-03-15T20:19:52;100718.78;;;5.36;76.20
46598;BME280;32318;48.858;8.252;2023-03-15T20:28:04;100717.91;;;5.36;76.05
46598;BME280;32318;48.858;8.252;2023-03-15T20:36:05;100720.78;;;5.21;76.29
46598;BME280;32318;48.858;8.252;2023-03-15T20:44:05;100718.97;;;5.10;76.05
46598;BME280;32318;48.858;8.252;2023-03-15T20:52:06;100727.59;;;5.12;74.97
46598;BME280;32318;48.858;8.252;2023-03-15T21:00:07;100723.75;;;5.05;75.67
46598;BME280;32318;48.858;8.252;2023-03-15T21:08:17;100723.41;;;5.10;73.21
46598;BME280;32318;48.858;8.252;2023-03-15T21:16:17;100731.63;;;4.82;74.03
46598;BME280;32318;48.858;8.252;2023-03-15T21:24:17;100734.81;;;4.75;73.45
46598;BME280;32318;48.858;8.252;2023-03-15T21:32:18;100726.94;;;4.50;73.43
46598;BME280;32318;48.858;8.252;2023-03-15T21:40:18;100719.88;;;4.38;73.82
46598;BME280;32318;48.858;8.252;2023-03-15T21:48:18;100732.06;;;4.28;73.30
46598;BME280;32318;48.858;8.252;2023-03-15T21:56:19;100730.34;;;4.15;74.08
46598;BME280;32318;48.858;8.252;2023-03-15T22:04:19;100727.16;;;4.10;73.98
46598;BME280;32318;48.858;8.252;2023-03-15T22:12:20;100728.69;;;4.26;75.18
46598;BME280;32318;48.858;8.252;2023-03-15T22:20:20;100722.56;;;4.25;74.95
46598;BME280;32318;48.858;8.252;2023-03-15T22:28:21;100733.28;;;4.23;75.30
46598;BME280;32318;48.858;8.252;2023-03-15T22:36:24;100724.94;;;4.17;74.97
46598;BME280;32318;48.858;8.252;2023-03-15T22:44:24;100727.69;;;4.15;75.46
46598;BME280;32318;48.858;8.252;2023-03-15T22:52:25;100713.13;;;4.10;74.98
46598;BME280;32318;48.858;8.252;2023-03-15T23:00:26;100702.34;;;4.00;75.22
46598;BME280;32318;48.858;8.252;2023-03-15T23:08:26;100688.84;;;3.91;75.08
46598;BME280;32318;48.858;8.252;2023-03-15T23:16:26;100694.78;;;3.82;75.92
46598;BME280;32318;48.858;8.252;2023-03-15T23:24:27;100695.03;;;3.79;76.07
46598;BME280;32318;48.858;8.252;2023-03-15T23:32:53;100695.22;;;3.76;75.57
46598;BME280;32318;48.858;8.252;2023-03-15T23:41:00;100685.31;;;3.67;75.78
46598;BME280;32318;48.858;8.252;2023-03-15T23:49:01;100686.59;;;3.61;75.69
46598;BME280;32318;48.858;8.252;2023-03-15T23:57:03;100677.53;;;3.52;75.46
